createdAt,value
2022-08-21T00:01:41.588Z,19.29
2022-08-21T00:04:09.401Z,19.35
2022-08-21T00:06:37.483Z,19.35
2022-08-21T00:09:06.996Z,19.29
2022-08-21T00:11:36.023Z,19.15
2022-08-21T00:14:03.879Z,19.21
2022-08-21T00:16:30.991Z,19.19
2022-08-21T00:18:57.521Z,19.05
2022-08-21T00:21:24.374Z,19.11
2022-08-21T00:23:50.862Z,19.19
2022-08-21T00:26:17.449Z,19.18
2022-08-21T00:28:44.159Z,19.20
2022-08-21T00:31:10.651Z,19.23
2022-08-21T00:33:37.327Z,19.25
2022-08-21T00:36:04.226Z,19.25
2022-08-21T00:38:30.870Z,19.19
2022-08-21T00:41:02.065Z,19.11
2022-08-21T00:43:48.405Z,19.15
2022-08-21T00:46:14.866Z,19.20
2022-08-21T00:48:41.662Z,19.34
2022-08-21T00:51:16.538Z,19.31
2022-08-21T00:53:50.658Z,19.25
2022-08-21T00:56:21.498Z,19.45
2022-08-21T00:58:49.175Z,19.58
2022-08-21T01:01:21.533Z,19.74
2022-08-21T01:03:48.621Z,19.74
2022-08-21T01:09:57.412Z,19.66
2022-08-21T01:12:24.594Z,19.73
2022-08-21T01:14:51.238Z,19.64
2022-08-21T01:17:18.447Z,19.66
2022-08-21T01:19:44.957Z,19.60
2022-08-21T01:22:11.590Z,19.66
2022-08-21T01:24:38.188Z,19.54
2022-08-21T01:27:04.976Z,19.46
2022-08-21T01:29:55.558Z,19.46
2022-08-21T01:32:22.233Z,19.33
2022-08-21T01:34:51.031Z,19.18
2022-08-21T01:37:18.413Z,19.27
2022-08-21T01:39:45.747Z,19.23
2022-08-21T01:42:12.750Z,19.23
2022-08-21T01:44:40.029Z,19.25
2022-08-21T01:47:09.775Z,19.42
2022-08-21T01:49:37.389Z,19.42
2022-08-21T01:52:05.597Z,19.32
2022-08-21T01:54:36.397Z,19.35
2022-08-21T01:57:03.538Z,19.43
2022-08-21T01:59:30.262Z,19.44
2022-08-21T02:01:56.848Z,19.49
2022-08-21T02:04:24.481Z,19.41
2022-08-21T02:06:51.262Z,19.38
2022-08-21T02:09:18.691Z,19.32
2022-08-21T02:11:45.203Z,19.17
2022-08-21T02:14:14.527Z,19.11
2022-08-21T02:16:43.961Z,19.23
2022-08-21T02:19:14.055Z,19.24
2022-08-21T02:21:41.194Z,19.15
2022-08-21T02:24:08.499Z,19.11
2022-08-21T02:26:35.537Z,19.13
2022-08-21T02:29:02.485Z,19.18
2022-08-21T02:31:29.961Z,19.22
2022-08-21T02:33:56.463Z,19.12
2022-08-21T02:36:22.989Z,18.96
2022-08-21T02:38:50.426Z,18.96
2022-08-21T02:41:19.431Z,18.96
2022-08-21T02:43:46.242Z,19.06
2022-08-21T02:46:15.147Z,18.92
2022-08-21T02:48:42.430Z,18.87
2022-08-21T02:51:12.690Z,19.06
2022-08-21T02:53:39.707Z,18.88
2022-08-21T02:56:09.225Z,18.81
2022-08-21T02:58:42.431Z,18.87
2022-08-21T03:01:10.481Z,18.82
2022-08-21T03:03:40.158Z,18.74
2022-08-21T03:06:08.963Z,18.64
2022-08-21T03:08:36.456Z,19.07
2022-08-21T03:11:03.249Z,18.98
2022-08-21T03:13:29.829Z,18.75
2022-08-21T03:15:57.634Z,18.68
2022-08-21T03:18:25.185Z,18.72
2022-08-21T03:20:51.925Z,18.70
2022-08-21T03:23:19.541Z,18.66
2022-08-21T03:25:47.854Z,18.57
2022-08-21T03:28:17.947Z,18.45
2022-08-21T03:30:46.471Z,18.54
2022-08-21T03:33:15.460Z,18.49
2022-08-21T03:35:44.084Z,18.53
2022-08-21T03:38:11.327Z,18.55
2022-08-21T03:40:37.875Z,18.45
2022-08-21T03:43:04.548Z,18.40
2022-08-21T03:45:31.482Z,18.39
2022-08-21T03:48:04.797Z,18.37
2022-08-21T03:50:34.815Z,18.36
2022-08-21T03:53:01.979Z,18.39
2022-08-21T03:55:29.053Z,18.26
2022-08-21T03:57:55.627Z,18.33
2022-08-21T04:00:22.306Z,18.29
2022-08-21T04:02:49.019Z,18.25
2022-08-21T04:05:28.176Z,18.22
2022-08-21T04:07:59.889Z,18.39
2022-08-21T04:10:28.048Z,18.36
2022-08-21T04:12:55.522Z,18.29
2022-08-21T04:15:23.847Z,18.41
2022-08-21T04:17:50.498Z,18.42
2022-08-21T04:20:19.072Z,18.45
2022-08-21T04:22:46.786Z,18.31
2022-08-21T04:25:15.045Z,18.31
2022-08-21T04:27:41.896Z,18.17
2022-08-21T04:30:10.012Z,18.26
2022-08-21T04:32:42.582Z,18.22
2022-08-21T04:35:11.111Z,18.23
2022-08-21T04:37:42.105Z,18.34
2022-08-21T04:40:11.237Z,18.15
2022-08-21T04:43:09.310Z,18.08
2022-08-21T04:45:43.042Z,17.99
2022-08-21T04:48:14.179Z,18.11
2022-08-21T04:50:48.688Z,18.24
2022-08-21T04:53:21.533Z,18.20
2022-08-21T04:55:48.839Z,18.32
2022-08-21T04:58:18.442Z,18.20
2022-08-21T05:00:46.876Z,18.32
2022-08-21T05:03:13.574Z,18.20
2022-08-21T05:05:40.746Z,18.24
2022-08-21T05:08:09.999Z,18.43
2022-08-21T05:10:36.868Z,18.37
2022-08-21T05:13:04.281Z,18.43
2022-08-21T05:15:31.567Z,18.38
2022-08-21T05:18:00.962Z,18.24
2022-08-21T05:20:28.793Z,18.43
2022-08-21T05:22:55.330Z,18.53
2022-08-21T05:25:22.143Z,18.35
2022-08-21T05:27:48.699Z,18.23
2022-08-21T05:30:18.641Z,18.26
2022-08-21T05:32:45.162Z,18.28
2022-08-21T05:35:12.272Z,18.28
2022-08-21T05:37:38.764Z,18.19
2022-08-21T05:40:21.398Z,18.15
2022-08-21T05:42:54.221Z,18.10
2022-08-21T05:45:42.320Z,18.04
2022-08-21T05:48:20.094Z,18.02
2022-08-21T05:50:48.099Z,17.98
2022-08-21T05:53:16.030Z,17.97
2022-08-21T05:55:46.117Z,18.01
2022-08-21T05:58:19.824Z,17.88
2022-08-21T06:00:48.436Z,18.02
2022-08-21T06:03:18.550Z,18.11
2022-08-21T06:05:46.510Z,17.94
2022-08-21T06:08:13.965Z,18.03
2022-08-21T06:10:40.523Z,18.14
2022-08-21T06:13:07.022Z,18.09
2022-08-21T06:15:33.814Z,18.21
2022-08-21T06:18:00.344Z,18.25
2022-08-21T06:20:27.384Z,18.30
2022-08-21T06:22:54.130Z,18.27
2022-08-21T06:25:20.967Z,18.38
2022-08-21T06:27:47.937Z,18.28
2022-08-21T06:30:15.051Z,18.33
2022-08-21T06:32:41.586Z,18.39
2022-08-21T06:35:08.546Z,18.41
2022-08-21T06:37:35.290Z,18.53
2022-08-21T06:40:04.033Z,18.63
2022-08-21T06:42:30.749Z,18.81
2022-08-21T06:44:58.252Z,19.00
2022-08-21T06:47:24.843Z,18.95
2022-08-21T06:49:51.524Z,18.96
2022-08-21T06:52:18.191Z,19.12
2022-08-21T06:54:44.700Z,19.09
2022-08-21T06:57:11.191Z,19.15
2022-08-21T06:59:37.736Z,19.29
2022-08-21T07:02:04.663Z,19.35
2022-08-21T07:04:31.218Z,19.36
2022-08-21T07:06:57.778Z,19.46
2022-08-21T07:09:24.970Z,19.55
2022-08-21T07:11:54.254Z,19.63
2022-08-21T07:14:20.819Z,19.80
2022-08-21T07:16:48.400Z,19.79
2022-08-21T07:19:14.971Z,19.81
2022-08-21T07:21:41.564Z,20.09
2022-08-21T07:24:08.067Z,20.23
2022-08-21T07:26:34.565Z,20.13
2022-08-21T07:29:01.138Z,20.21
2022-08-21T07:31:29.333Z,20.54
2022-08-21T07:33:55.894Z,20.60
2022-08-21T07:36:22.589Z,20.65
2022-08-21T07:38:49.090Z,20.85
2022-08-21T07:41:26.298Z,21.09
2022-08-21T07:43:53.184Z,20.88
2022-08-21T07:46:20.441Z,20.98
2022-08-21T07:48:47.161Z,20.95
2022-08-21T07:51:17.471Z,20.97
2022-08-21T07:53:49.796Z,20.77
2022-08-21T07:56:16.969Z,20.91
2022-08-21T07:58:43.472Z,20.80
2022-08-21T08:01:10.042Z,21.04
2022-08-21T08:03:36.654Z,21.18
2022-08-21T08:06:05.549Z,21.20
2022-08-21T08:08:32.812Z,21.10
2022-08-21T08:11:00.890Z,21.10
2022-08-21T08:13:27.414Z,21.18
2022-08-21T08:15:53.990Z,21.61
2022-08-21T08:18:20.581Z,21.81
2022-08-21T08:20:47.039Z,21.83
2022-08-21T08:23:15.101Z,21.90
2022-08-21T08:25:42.086Z,21.98
2022-08-21T08:28:17.326Z,21.95
2022-08-21T08:30:47.383Z,21.88
2022-08-21T08:33:15.735Z,21.84
2022-08-21T08:35:45.600Z,22.05
2022-08-21T08:38:12.122Z,22.24
2022-08-21T08:40:57.251Z,21.66
2022-08-21T08:43:23.736Z,21.66
2022-08-21T08:45:55.017Z,21.71
2022-08-21T08:49:12.726Z,21.45
2022-08-21T08:51:53.020Z,21.25
2022-08-21T08:54:32.401Z,21.31
2022-08-21T08:57:00.950Z,21.18
2022-08-21T08:59:40.849Z,21.24
2022-08-21T09:02:10.717Z,21.78
2022-08-21T09:04:37.535Z,21.74
2022-08-21T09:07:20.831Z,21.38
2022-08-21T09:10:11.290Z,21.27
2022-08-21T09:12:49.859Z,21.70
2022-08-21T09:15:54.994Z,21.65
2022-08-21T09:18:33.975Z,21.67
2022-08-21T09:21:15.650Z,21.56
2022-08-21T09:23:42.377Z,21.27
2022-08-21T09:26:17.734Z,21.46
2022-08-21T09:28:45.434Z,21.47
2022-08-21T09:31:35.357Z,21.47
2022-08-21T09:34:09.710Z,21.47
2022-08-21T09:36:41.519Z,21.59
2022-08-21T09:39:10.182Z,21.48
2022-08-21T09:41:39.005Z,21.40
2022-08-21T09:44:08.537Z,21.59
2022-08-21T09:46:36.564Z,21.85
2022-08-21T09:49:06.845Z,21.57
2022-08-21T09:51:52.401Z,21.60
2022-08-21T09:54:22.424Z,21.90
2022-08-21T09:57:33.216Z,21.59
2022-08-21T10:00:12.113Z,21.90
2022-08-21T10:02:39.242Z,21.59
2022-08-21T10:05:18.846Z,21.75
2022-08-21T10:07:45.345Z,21.91
2022-08-21T10:10:19.174Z,22.20
2022-08-21T10:12:59.650Z,22.60
2022-08-21T10:15:53.922Z,23.04
2022-08-21T10:18:39.121Z,22.81
2022-08-21T10:21:19.920Z,22.69
2022-08-21T10:23:55.961Z,22.91
2022-08-21T10:26:37.082Z,22.45
2022-08-21T10:29:12.329Z,23.36
2022-08-21T10:31:54.442Z,22.66
2022-08-21T10:34:53.312Z,22.53
2022-08-21T10:37:27.220Z,22.26
2022-08-21T10:40:20.302Z,22.44
2022-08-21T10:43:14.847Z,22.29
2022-08-21T10:45:56.051Z,22.59
2022-08-21T10:48:37.521Z,22.64
2022-08-21T10:51:03.848Z,22.35
2022-08-21T10:53:43.220Z,22.54
2022-08-21T10:56:17.157Z,22.87
2022-08-21T10:58:59.424Z,23.16
2022-08-21T11:01:33.218Z,23.33
2022-08-21T11:04:17.086Z,23.14
2022-08-21T11:06:48.633Z,23.56
2022-08-21T11:09:18.238Z,23.20
2022-08-21T11:11:59.068Z,23.38
2022-08-21T11:15:03.941Z,23.53
2022-08-21T11:17:59.154Z,23.18
2022-08-21T11:21:00.092Z,23.22
2022-08-21T11:23:37.788Z,24.07
2022-08-21T11:26:13.509Z,24.14
2022-08-21T11:28:51.175Z,23.71
2022-08-21T11:31:36.166Z,24.23
2022-08-21T11:34:02.644Z,24.73
2022-08-21T11:36:47.607Z,24.03
2022-08-21T11:39:14.141Z,23.94
2022-08-21T11:42:09.135Z,24.08
2022-08-21T11:45:05.516Z,24.28
2022-08-21T11:47:55.002Z,24.35
2022-08-21T11:50:36.148Z,23.81
2022-08-21T11:53:25.575Z,24.11
2022-08-21T11:55:58.002Z,24.04
2022-08-21T11:58:37.098Z,24.43
2022-08-21T12:01:16.953Z,24.19
2022-08-21T12:03:56.255Z,23.79
2022-08-21T12:06:50.308Z,23.87
2022-08-21T12:09:26.090Z,23.91
2022-08-21T12:12:13.211Z,23.43
2022-08-21T12:14:46.138Z,23.11
2022-08-21T12:17:36.945Z,22.97
2022-08-21T12:20:28.254Z,22.64
2022-08-21T12:23:16.622Z,23.05
2022-08-21T12:25:47.972Z,23.30
2022-08-21T12:28:22.636Z,23.15
2022-08-21T12:30:52.073Z,22.74
2022-08-21T12:33:25.671Z,22.84
2022-08-21T12:36:02.281Z,22.97
2022-08-21T12:38:34.357Z,22.85
2022-08-21T12:41:06.838Z,22.87
2022-08-21T12:43:43.930Z,23.24
2022-08-21T12:46:23.392Z,22.69
2022-08-21T12:48:57.696Z,22.66
2022-08-21T12:51:44.669Z,22.97
2022-08-21T12:54:11.151Z,22.86
2022-08-21T12:56:40.015Z,23.07
2022-08-21T12:59:11.989Z,22.71
2022-08-21T13:01:52.468Z,22.61
2022-08-21T13:04:23.005Z,22.83
2022-08-21T13:06:53.975Z,22.83
2022-08-21T13:09:26.849Z,22.76
2022-08-21T13:11:54.414Z,22.49
2022-08-21T13:14:20.859Z,22.49
2022-08-21T13:16:48.493Z,22.50
2022-08-21T13:19:23.855Z,22.49
2022-08-21T13:21:53.324Z,22.39
2022-08-21T13:24:43.722Z,22.50
2022-08-21T13:27:26.463Z,22.51
2022-08-21T13:30:10.946Z,22.25
2022-08-21T13:32:42.868Z,22.00
2022-08-21T13:35:16.047Z,22.07
2022-08-21T13:37:44.230Z,22.03
2022-08-21T13:40:15.897Z,22.29
2022-08-21T13:42:46.155Z,22.17
2022-08-21T13:45:18.194Z,22.25
2022-08-21T13:47:47.839Z,22.29
2022-08-21T13:50:16.055Z,22.01
2022-08-21T13:52:54.815Z,22.23
2022-08-21T13:55:21.364Z,22.37
2022-08-21T13:57:47.941Z,21.97
2022-08-21T14:00:20.893Z,22.32
2022-08-21T14:02:52.645Z,22.28
2022-08-21T14:05:31.203Z,21.94
2022-08-21T14:08:09.921Z,21.97
2022-08-21T14:10:42.482Z,22.06
2022-08-21T14:13:25.081Z,22.03
2022-08-21T14:16:03.446Z,22.07
2022-08-21T14:18:30.525Z,22.28
2022-08-21T14:21:09.038Z,22.64
2022-08-21T14:23:36.026Z,22.07
2022-08-21T14:26:06.705Z,22.19
2022-08-21T14:28:42.364Z,22.20
2022-08-21T14:31:18.287Z,22.39
2022-08-21T14:33:46.246Z,22.32
2022-08-21T14:36:12.749Z,22.48
2022-08-21T14:38:41.478Z,22.19
2022-08-21T14:41:19.138Z,22.22
2022-08-21T14:43:47.327Z,22.31
2022-08-21T14:46:21.228Z,22.36
2022-08-21T14:48:47.845Z,22.65
2022-08-21T14:51:14.647Z,22.43
2022-08-21T14:53:41.609Z,22.19
2022-08-21T14:56:08.259Z,22.28
2022-08-21T14:58:39.341Z,22.19
2022-08-21T15:01:08.407Z,22.19
2022-08-21T15:03:35.082Z,22.25
2022-08-21T15:06:02.102Z,22.21
2022-08-21T15:08:28.627Z,22.41
2022-08-21T15:11:11.081Z,22.36
2022-08-21T15:13:38.667Z,22.35
2022-08-21T15:16:05.305Z,22.38
2022-08-21T15:18:34.295Z,22.57
2022-08-21T15:21:00.829Z,22.48
2022-08-21T15:23:27.445Z,22.06
2022-08-21T15:25:54.923Z,21.95
2022-08-21T15:28:22.231Z,21.88
2022-08-21T15:30:50.066Z,22.06
2022-08-21T15:33:16.625Z,22.06
2022-08-21T15:35:43.116Z,22.14
2022-08-21T15:38:11.436Z,21.90
2022-08-21T15:40:38.842Z,21.92
2022-08-21T15:43:07.050Z,21.83
2022-08-21T15:45:34.518Z,21.96
2022-08-21T15:48:01.928Z,21.93
2022-08-21T15:50:29.353Z,21.92
2022-08-21T15:52:55.865Z,21.93
2022-08-21T15:55:22.804Z,22.31
2022-08-21T15:57:58.175Z,21.93
2022-08-21T16:00:26.571Z,22.25
2022-08-21T16:02:56.039Z,22.11
2022-08-21T16:05:23.928Z,22.10
2022-08-21T16:07:51.207Z,22.06
2022-08-21T16:10:23.411Z,21.93
2022-08-21T16:12:58.856Z,22.08
2022-08-21T16:15:26.807Z,22.19
2022-08-21T16:17:54.788Z,22.29
2022-08-21T16:20:28.165Z,21.77
2022-08-21T16:22:56.118Z,21.95
2022-08-21T16:25:23.318Z,22.06
2022-08-21T16:27:57.381Z,21.93
2022-08-21T16:30:27.121Z,22.02
2022-08-21T16:32:53.938Z,22.12
2022-08-21T16:35:21.546Z,22.04
2022-08-21T16:37:52.917Z,21.96
2022-08-21T16:40:20.075Z,21.81
2022-08-21T16:42:46.636Z,21.73
2022-08-21T16:45:16.512Z,21.75
2022-08-21T16:47:44.552Z,21.67
2022-08-21T16:50:16.053Z,21.73
2022-08-21T16:52:43.173Z,21.70
2022-08-21T16:55:09.882Z,21.61
2022-08-21T16:57:37.889Z,21.78
2022-08-21T17:00:08.907Z,21.66
2022-08-21T17:02:37.944Z,21.76
2022-08-21T17:05:06.528Z,21.88
2022-08-21T17:07:41.014Z,21.64
2022-08-21T17:10:09.602Z,21.55
2022-08-21T17:12:36.509Z,21.58
2022-08-21T17:15:11.556Z,21.65
2022-08-21T17:17:38.170Z,21.96
2022-08-21T17:20:05.201Z,21.80
2022-08-21T17:22:32.918Z,21.98
2022-08-21T17:24:59.498Z,21.87
2022-08-21T17:27:28.207Z,21.69
2022-08-21T17:29:56.166Z,21.75
2022-08-21T17:32:23.105Z,21.72
2022-08-21T17:34:49.582Z,21.74
2022-08-21T17:37:16.156Z,21.71
2022-08-21T17:39:42.964Z,21.89
2022-08-21T17:42:13.699Z,21.88
2022-08-21T17:44:42.621Z,21.89
2022-08-21T17:47:09.733Z,21.70
2022-08-21T17:49:36.401Z,21.40
2022-08-21T17:52:04.628Z,21.36
2022-08-21T17:54:31.442Z,21.26
2022-08-21T17:56:58.406Z,21.38
2022-08-21T17:59:25.316Z,21.48
2022-08-21T18:01:52.241Z,21.38
2022-08-21T18:04:18.721Z,21.27
2022-08-21T18:06:45.463Z,21.45
2022-08-21T18:09:12.813Z,21.47
2022-08-21T18:11:40.698Z,21.34
2022-08-21T18:14:07.979Z,21.56
2022-08-21T18:16:37.395Z,21.52
2022-08-21T18:19:08.714Z,21.49
2022-08-21T18:21:35.290Z,21.43
2022-08-21T18:24:01.915Z,21.36
2022-08-21T18:26:32.851Z,21.33
2022-08-21T18:29:01.504Z,21.32
2022-08-21T18:31:31.536Z,21.26
2022-08-21T18:33:58.959Z,21.25
2022-08-21T18:36:27.739Z,21.19
2022-08-21T18:39:04.629Z,21.15
2022-08-21T18:41:45.222Z,21.08
2022-08-21T18:44:14.733Z,21.06
2022-08-21T18:46:52.272Z,21.03
2022-08-21T18:49:19.324Z,21.04
2022-08-21T18:51:46.369Z,20.94
2022-08-21T18:54:14.563Z,20.88
2022-08-21T18:56:42.142Z,20.85
2022-08-21T18:59:10.691Z,20.83
2022-08-21T19:01:38.080Z,20.95
2022-08-21T19:04:06.685Z,20.94
2022-08-21T19:06:36.457Z,20.91
2022-08-21T19:09:09.413Z,20.87
2022-08-21T19:11:38.513Z,20.85
2022-08-21T19:16:59.673Z,20.81
2022-08-21T19:19:26.208Z,20.73
2022-08-21T19:21:53.079Z,20.75
2022-08-21T19:24:23.130Z,20.71
2022-08-21T19:26:50.378Z,20.64
2022-08-21T19:29:34.450Z,20.66
2022-08-21T19:32:04.591Z,20.62
2022-08-21T19:34:31.343Z,20.65
2022-08-21T19:37:03.701Z,20.50
2022-08-21T19:39:38.139Z,20.50
2022-08-21T19:42:06.276Z,20.46
2022-08-21T19:44:37.777Z,20.43
2022-08-21T19:47:12.939Z,20.40
2022-08-21T19:49:51.304Z,20.41
2022-08-21T19:52:18.383Z,20.36
2022-08-21T19:54:45.038Z,20.28
2022-08-21T19:57:12.528Z,20.29
2022-08-21T19:59:40.676Z,20.29
2022-08-21T20:02:09.186Z,20.32
2022-08-21T20:04:35.881Z,20.27
2022-08-21T20:07:02.435Z,20.26
2022-08-21T20:09:28.949Z,20.26
2022-08-21T20:11:58.294Z,20.27
2022-08-21T20:14:31.195Z,20.25
2022-08-21T20:17:07.985Z,20.16
2022-08-21T20:19:38.959Z,20.10
2022-08-21T20:22:06.258Z,20.06
2022-08-21T20:24:33.326Z,20.05
2022-08-21T20:27:03.122Z,20.01
2022-08-21T20:29:36.159Z,19.98
2022-08-21T20:32:07.713Z,19.95
2022-08-21T20:34:34.534Z,19.84
2022-08-21T20:37:01.582Z,19.77
2022-08-21T20:39:28.650Z,19.72
2022-08-21T20:41:56.605Z,19.78
2022-08-21T20:44:28.269Z,19.82
2022-08-21T20:46:54.962Z,19.88
2022-08-21T20:49:26.706Z,19.83
2022-08-21T20:54:52.567Z,19.80
2022-08-21T20:57:22.497Z,19.74
2022-08-21T20:59:51.820Z,19.66
2022-08-21T21:02:36.577Z,19.46
2022-08-21T21:05:12.614Z,19.60
2022-08-21T21:07:57.708Z,19.63
2022-08-21T21:10:36.433Z,19.59
2022-08-21T21:13:14.010Z,19.60
2022-08-21T21:15:42.523Z,19.61
2022-08-21T21:18:18.173Z,19.63
2022-08-21T21:21:34.197Z,19.63
2022-08-21T21:24:01.400Z,19.64
2022-08-21T21:26:35.286Z,19.55
2022-08-21T21:29:13.255Z,19.54
2022-08-21T21:31:41.431Z,19.58
2022-08-21T21:34:07.896Z,19.54
2022-08-21T21:37:07.976Z,19.53
2022-08-21T21:39:50.488Z,19.47
2022-08-21T21:42:32.971Z,19.43
2022-08-21T21:45:27.007Z,19.38
2022-08-21T21:48:11.884Z,19.32
2022-08-21T21:50:53.516Z,19.29
2022-08-21T21:53:38.778Z,19.29
2022-08-21T21:56:17.241Z,19.26
2022-08-21T21:59:02.218Z,19.25
2022-08-21T22:01:43.716Z,19.25
2022-08-21T22:04:52.126Z,19.26
2022-08-21T22:07:28.498Z,19.25
2022-08-21T22:10:05.670Z,19.25
2022-08-21T22:12:50.000Z,19.24
2022-08-21T22:15:26.175Z,19.05
2022-08-21T22:18:10.090Z,18.91
2022-08-21T22:20:56.134Z,18.89
2022-08-21T22:23:27.425Z,18.89
2022-08-21T22:26:03.750Z,18.87
2022-08-21T22:28:35.369Z,18.88
2022-08-21T22:31:10.958Z,18.92
2022-08-21T22:33:37.678Z,18.83
2022-08-21T22:36:19.461Z,18.74
2022-08-21T22:38:46.034Z,18.71
2022-08-21T22:41:24.214Z,18.69
2022-08-21T22:44:02.394Z,18.66
2022-08-21T22:46:37.562Z,18.58
2022-08-21T22:49:12.149Z,18.52
2022-08-21T22:51:43.884Z,18.53
2022-08-21T22:54:22.933Z,18.55
2022-08-21T22:57:00.397Z,18.59
2022-08-21T22:59:31.917Z,18.55
2022-08-21T23:02:30.458Z,18.51
2022-08-21T23:05:00.573Z,18.49
2022-08-21T23:10:41.641Z,18.39
2022-08-21T23:13:12.966Z,18.43
2022-08-21T23:16:07.956Z,18.34
2022-08-21T23:18:55.578Z,18.32
2022-08-21T23:21:27.949Z,18.29
2022-08-21T23:24:36.219Z,18.29
2022-08-21T23:27:24.180Z,18.34
2022-08-21T23:30:10.592Z,18.28
2022-08-21T23:36:41.192Z,18.25
2022-08-21T23:39:20.325Z,18.27
2022-08-21T23:42:04.001Z,18.20
2022-08-21T23:45:12.224Z,18.13
2022-08-21T23:47:46.486Z,18.15
2022-08-21T23:50:56.835Z,18.17
2022-08-21T23:53:37.487Z,18.16
2022-08-21T23:56:23.535Z,18.15
2022-08-21T23:59:09.263Z,18.18
